createdAt,value
2019-01-09T00:00:08.265Z,4.67
2019-01-09T00:01:08.248Z,4.65
2019-01-09T00:02:08.235Z,4.56
2019-01-09T00:03:08.226Z,4.59
2019-01-09T00:04:08.211Z,4.54
2019-01-09T00:05:08.217Z,4.54
2019-01-09T00:06:08.191Z,4.53
2019-01-09T00:07:08.200Z,4.49
2019-01-09T00:08:08.185Z,4.50
2019-01-09T00:09:08.170Z,4.50
2019-01-09T00:10:08.182Z,4.46
2019-01-09T00:11:08.150Z,4.44
2019-01-09T00:12:08.145Z,4.38
2019-01-09T00:13:08.145Z,4.34
2019-01-09T00:14:08.106Z,4.35
2019-01-09T00:15:08.114Z,4.36
2019-01-09T00:16:08.088Z,4.34
2019-01-09T00:17:08.091Z,4.34
2019-01-09T00:18:08.066Z,4.35
2019-01-09T00:19:08.050Z,4.35
2019-01-09T00:20:08.086Z,4.32
2019-01-09T00:21:08.056Z,4.35
2019-01-09T00:22:08.027Z,4.39
2019-01-09T00:23:08.012Z,4.32
2019-01-09T00:24:08.015Z,4.34
2019-01-09T00:25:08.020Z,4.31
2019-01-09T00:26:07.980Z,4.32
2019-01-09T00:27:07.977Z,4.36
2019-01-09T00:28:07.954Z,4.38
2019-01-09T00:29:07.943Z,4.36
2019-01-09T00:30:07.947Z,4.47
2019-01-09T00:31:07.921Z,4.43
2019-01-09T00:32:07.914Z,4.47
2019-01-09T00:33:07.908Z,4.47
2019-01-09T00:34:07.914Z,4.44
2019-01-09T00:35:07.895Z,4.50
2019-01-09T00:36:07.882Z,4.50
2019-01-09T00:37:07.866Z,4.47
2019-01-09T00:38:07.889Z,4.46
2019-01-09T00:39:07.862Z,4.50
2019-01-09T00:40:07.851Z,4.47
2019-01-09T00:41:07.817Z,4.57
2019-01-09T00:42:07.805Z,4.62
2019-01-09T00:43:07.811Z,4.56
2019-01-09T00:44:07.781Z,4.61
2019-01-09T00:45:07.800Z,4.51
2019-01-09T00:46:07.771Z,4.44
2019-01-09T00:47:07.754Z,4.50
2019-01-09T00:48:07.772Z,4.54
2019-01-09T00:49:07.741Z,4.47
2019-01-09T00:50:07.745Z,4.47
2019-01-09T00:51:07.714Z,4.47
2019-01-09T00:52:07.701Z,4.50
2019-01-09T00:53:07.706Z,4.49
2019-01-09T00:54:07.696Z,4.47
2019-01-09T00:55:07.666Z,4.46
2019-01-09T00:56:07.657Z,4.46
2019-01-09T00:57:07.664Z,4.44
2019-01-09T00:58:07.678Z,4.46
2019-01-09T00:59:07.648Z,4.50
2019-01-09T01:00:07.661Z,4.47
2019-01-09T01:01:07.614Z,4.49
2019-01-09T01:02:07.593Z,4.50
2019-01-09T01:03:07.579Z,4.46
2019-01-09T01:04:07.586Z,4.32
2019-01-09T01:05:07.564Z,4.32
2019-01-09T01:06:07.552Z,4.34
2019-01-09T01:07:07.546Z,4.39
2019-01-09T01:08:07.535Z,4.36
2019-01-09T01:09:07.545Z,4.35
2019-01-09T01:10:07.510Z,4.43
2019-01-09T01:11:07.538Z,4.44
2019-01-09T01:12:07.508Z,4.43
2019-01-09T01:13:07.477Z,4.43
2019-01-09T01:14:07.465Z,4.43
2019-01-09T01:15:07.471Z,4.46
2019-01-09T01:16:07.458Z,4.43
2019-01-09T01:17:07.456Z,4.50
2019-01-09T01:18:07.434Z,4.44
2019-01-09T01:19:07.418Z,4.47
2019-01-09T01:20:07.438Z,4.44
2019-01-09T01:21:07.412Z,4.34
2019-01-09T01:22:07.409Z,4.35
2019-01-09T01:23:07.375Z,4.36
2019-01-09T01:24:07.358Z,4.29
2019-01-09T01:25:07.349Z,4.29
2019-01-09T01:26:07.357Z,4.25
2019-01-09T01:27:07.349Z,4.24
2019-01-09T01:28:07.349Z,4.24
2019-01-09T01:29:07.303Z,4.28
2019-01-09T01:30:07.297Z,4.28
2019-01-09T01:31:07.297Z,4.25
2019-01-09T01:32:07.277Z,4.29
2019-01-09T01:33:07.266Z,4.28
2019-01-09T01:34:07.258Z,4.29
2019-01-09T01:35:07.262Z,4.32
2019-01-09T01:36:07.246Z,4.36
2019-01-09T01:37:07.251Z,4.36
2019-01-09T01:38:07.219Z,4.35
2019-01-09T01:39:07.226Z,4.35
2019-01-09T01:40:07.189Z,4.38
2019-01-09T01:41:07.225Z,4.34
2019-01-09T01:42:07.172Z,4.39
2019-01-09T01:43:07.156Z,4.46
2019-01-09T01:44:07.148Z,4.36
2019-01-09T01:45:07.140Z,4.38
2019-01-09T01:46:07.158Z,4.34
2019-01-09T01:47:07.142Z,4.29
2019-01-09T01:48:07.107Z,4.34
2019-01-09T01:49:07.137Z,4.29
2019-01-09T01:50:07.102Z,4.24
2019-01-09T01:51:07.077Z,4.26
2019-01-09T01:52:07.097Z,4.25
2019-01-09T01:53:07.100Z,4.31
2019-01-09T01:54:07.061Z,4.34
2019-01-09T01:55:07.030Z,4.35
2019-01-09T01:56:07.019Z,4.34
2019-01-09T01:57:07.030Z,4.21
2019-01-09T01:58:06.998Z,4.25
2019-01-09T01:59:06.988Z,4.16
2019-01-09T02:00:06.983Z,4.10
2019-01-09T02:01:06.976Z,4.13
2019-01-09T02:02:06.975Z,4.14
2019-01-09T02:03:06.948Z,4.17
2019-01-09T02:04:06.947Z,4.08
2019-01-09T02:05:06.927Z,4.06
2019-01-09T02:06:06.914Z,4.10
2019-01-09T02:07:06.922Z,4.06
2019-01-09T02:08:06.897Z,4.00
2019-01-09T02:09:06.901Z,4.02
2019-01-09T02:10:06.898Z,4.00
2019-01-09T02:11:06.864Z,3.99
2019-01-09T02:12:06.865Z,4.00
2019-01-09T02:13:06.866Z,3.96
2019-01-09T02:14:06.835Z,3.96
2019-01-09T02:15:06.821Z,4.06
2019-01-09T02:16:06.878Z,4.04
2019-01-09T02:17:06.815Z,4.00
2019-01-09T02:18:06.788Z,4.06
2019-01-09T02:19:06.782Z,4.06
2019-01-09T02:20:06.775Z,4.06
2019-01-09T02:21:06.787Z,4.06
2019-01-09T02:22:06.787Z,4.02
2019-01-09T02:23:06.740Z,4.06
2019-01-09T02:24:06.736Z,4.13
2019-01-09T02:25:06.733Z,4.08
2019-01-09T02:26:06.727Z,4.02
2019-01-09T02:27:06.712Z,4.07
2019-01-09T02:28:06.698Z,4.02
2019-01-09T02:29:06.702Z,4.13
2019-01-09T02:30:06.664Z,4.07
2019-01-09T02:31:06.655Z,4.11
2019-01-09T02:32:06.674Z,4.06
2019-01-09T02:33:06.630Z,4.07
2019-01-09T02:34:06.657Z,4.06
2019-01-09T02:35:06.611Z,4.06
2019-01-09T02:36:13.393Z,4.08
2019-01-09T02:37:07.625Z,4.04
2019-01-09T02:38:06.578Z,4.06
2019-01-09T02:39:06.573Z,4.07
2019-01-09T02:40:06.589Z,4.04
2019-01-09T02:41:06.543Z,4.13
2019-01-09T02:42:06.540Z,4.06
2019-01-09T02:43:06.575Z,4.08
2019-01-09T02:44:06.538Z,4.16
2019-01-09T02:45:06.505Z,4.08
2019-01-09T02:46:06.494Z,4.06
2019-01-09T02:47:06.518Z,4.08
2019-01-09T02:48:06.494Z,4.06
2019-01-09T02:49:06.460Z,4.10
2019-01-09T02:50:06.454Z,4.06
2019-01-09T02:51:06.462Z,4.00
2019-01-09T02:52:06.456Z,3.99
2019-01-09T02:53:06.486Z,4.02
2019-01-09T02:54:06.447Z,4.06
2019-01-09T02:55:06.412Z,4.02
2019-01-09T02:56:06.387Z,3.99
2019-01-09T02:57:06.403Z,4.11
2019-01-09T02:58:06.408Z,4.06
2019-01-09T02:59:06.358Z,4.07
2019-01-09T03:00:06.374Z,4.00
2019-01-09T03:01:06.347Z,3.95
2019-01-09T03:02:06.331Z,4.07
2019-01-09T03:03:06.331Z,4.02
2019-01-09T03:04:06.322Z,4.04
2019-01-09T03:05:06.305Z,4.04
2019-01-09T03:06:06.334Z,3.95
2019-01-09T03:07:06.286Z,3.98
2019-01-09T03:08:06.309Z,4.13
2019-01-09T03:09:06.294Z,4.14
2019-01-09T03:10:06.255Z,4.14
2019-01-09T03:11:06.253Z,4.13
2019-01-09T03:12:06.223Z,3.99
2019-01-09T03:13:06.226Z,4.07
2019-01-09T03:14:06.220Z,4.10
2019-01-09T03:15:06.189Z,4.06
2019-01-09T03:16:06.177Z,4.06
2019-01-09T03:17:06.172Z,4.04
2019-01-09T03:18:06.176Z,4.10
2019-01-09T03:19:06.146Z,3.96
2019-01-09T03:20:06.171Z,3.98
2019-01-09T03:21:06.138Z,3.89
2019-01-09T03:22:06.114Z,3.93
2019-01-09T03:23:06.129Z,3.88
2019-01-09T03:24:06.127Z,3.89
2019-01-09T03:25:06.096Z,3.80
2019-01-09T03:26:06.094Z,3.88
2019-01-09T03:27:06.061Z,3.96
2019-01-09T03:28:06.088Z,3.84
2019-01-09T03:29:06.055Z,3.90
2019-01-09T03:30:06.029Z,3.86
2019-01-09T03:31:06.022Z,3.80
2019-01-09T03:32:06.017Z,3.75
2019-01-09T03:33:06.011Z,3.77
2019-01-09T03:34:06.006Z,3.77
2019-01-09T03:35:05.981Z,3.80
2019-01-09T03:36:05.973Z,3.71
2019-01-09T03:37:05.972Z,3.74
2019-01-09T03:38:05.971Z,3.77
2019-01-09T03:39:05.934Z,3.77
2019-01-09T03:40:05.928Z,3.70
2019-01-09T03:41:05.915Z,3.67
2019-01-09T03:42:05.900Z,3.64
2019-01-09T03:43:05.903Z,3.67
2019-01-09T03:44:05.892Z,3.67
2019-01-09T03:45:05.877Z,3.67
2019-01-09T03:46:05.862Z,3.64
2019-01-09T03:47:05.854Z,3.70
2019-01-09T03:48:05.859Z,3.64
2019-01-09T03:49:05.909Z,3.64
2019-01-09T03:50:05.823Z,3.68
2019-01-09T03:51:05.820Z,3.60
2019-01-09T03:52:05.815Z,3.64
2019-01-09T03:53:05.804Z,3.57
2019-01-09T03:54:05.832Z,3.57
2019-01-09T03:55:05.776Z,3.49
2019-01-09T03:56:05.761Z,3.54
2019-01-09T03:57:05.762Z,3.53
2019-01-09T03:58:05.768Z,3.52
2019-01-09T03:59:05.739Z,3.56
2019-01-09T04:00:05.765Z,3.54
2019-01-09T04:01:05.728Z,3.52
2019-01-09T04:02:05.693Z,3.53
2019-01-09T04:03:05.697Z,3.57
2019-01-09T04:04:05.684Z,3.60
2019-01-09T04:05:05.658Z,3.62
2019-01-09T04:06:05.650Z,3.67
2019-01-09T04:07:05.678Z,3.68
2019-01-09T04:08:05.633Z,3.62
2019-01-09T04:09:05.639Z,3.63
2019-01-09T04:10:05.603Z,3.63
2019-01-09T04:11:05.591Z,3.59
2019-01-09T04:12:05.579Z,3.62
2019-01-09T04:13:05.584Z,3.64
2019-01-09T04:14:05.628Z,3.56
2019-01-09T04:15:05.565Z,3.60
2019-01-09T04:16:05.559Z,3.60
2019-01-09T04:17:05.542Z,3.63
2019-01-09T04:18:05.533Z,3.57
2019-01-09T04:19:05.568Z,3.56
2019-01-09T04:20:05.498Z,3.54
2019-01-09T04:21:05.492Z,3.57
2019-01-09T04:22:05.492Z,3.59
2019-01-09T04:23:05.487Z,3.49
2019-01-09T04:24:05.469Z,3.49
2019-01-09T04:25:05.461Z,3.50
2019-01-09T04:26:05.434Z,3.57
2019-01-09T04:27:05.421Z,3.50
2019-01-09T04:28:05.468Z,3.57
2019-01-09T04:29:05.418Z,3.53
2019-01-09T04:30:05.408Z,3.52
2019-01-09T04:31:05.377Z,3.52
2019-01-09T04:32:05.370Z,3.57
2019-01-09T04:33:05.369Z,3.42
2019-01-09T04:34:05.354Z,3.52
2019-01-09T04:35:05.359Z,3.45
2019-01-09T04:36:05.332Z,3.46
2019-01-09T04:37:05.327Z,3.45
2019-01-09T04:38:05.336Z,3.46
2019-01-09T04:39:05.298Z,3.49
2019-01-09T04:40:05.325Z,3.44
2019-01-09T04:41:05.288Z,3.39
2019-01-09T04:42:05.271Z,3.42
2019-01-09T04:43:05.284Z,3.41
2019-01-09T04:44:05.237Z,3.31
2019-01-09T04:45:05.243Z,3.31
2019-01-09T04:46:05.222Z,3.35
2019-01-09T04:47:05.207Z,3.46
2019-01-09T04:48:05.223Z,3.41
2019-01-09T04:49:05.193Z,3.46
2019-01-09T04:50:05.208Z,3.45
2019-01-09T04:51:05.194Z,3.42
2019-01-09T04:52:05.153Z,3.39
2019-01-09T04:53:05.147Z,3.35
2019-01-09T04:54:05.131Z,3.49
2019-01-09T04:55:05.137Z,3.39
2019-01-09T04:56:05.114Z,3.35
2019-01-09T04:57:05.103Z,3.34
2019-01-09T04:58:05.097Z,3.39
2019-01-09T04:59:05.116Z,3.35
2019-01-09T05:00:05.091Z,3.37
2019-01-09T05:01:05.093Z,3.39
2019-01-09T05:02:05.051Z,3.35
2019-01-09T05:03:05.053Z,3.37
2019-01-09T05:04:05.059Z,3.39
2019-01-09T05:05:05.046Z,3.31
2019-01-09T05:06:05.008Z,3.23
2019-01-09T05:07:04.996Z,3.39
2019-01-09T05:08:05.013Z,3.37
2019-01-09T05:09:04.976Z,3.33
2019-01-09T05:10:04.976Z,3.34
2019-01-09T05:11:04.962Z,3.35
2019-01-09T05:12:04.937Z,3.33
2019-01-09T05:13:04.931Z,3.35
2019-01-09T05:14:04.923Z,3.16
2019-01-09T05:15:04.970Z,3.25
2019-01-09T05:16:04.903Z,3.22
2019-01-09T05:17:04.898Z,3.23
2019-01-09T05:18:04.899Z,3.25
2019-01-09T05:19:04.865Z,3.17
2019-01-09T05:20:04.892Z,3.19
2019-01-09T05:21:04.870Z,3.26
2019-01-09T05:22:04.833Z,3.37
2019-01-09T05:23:04.829Z,3.31
2019-01-09T05:24:04.810Z,3.39
2019-01-09T05:25:04.812Z,3.35
2019-01-09T05:26:04.821Z,3.22
2019-01-09T05:27:04.780Z,3.39
2019-01-09T05:28:04.772Z,3.19
2019-01-09T05:29:04.777Z,3.25
2019-01-09T05:30:04.778Z,3.20
2019-01-09T05:31:07.779Z,3.17
2019-01-09T05:32:04.732Z,3.13
2019-01-09T05:33:04.727Z,3.12
2019-01-09T05:34:04.704Z,3.15
2019-01-09T05:35:04.709Z,3.07
2019-01-09T05:36:04.727Z,3.12
2019-01-09T05:37:09.379Z,3.07
2019-01-09T05:38:05.663Z,3.07
2019-01-09T05:39:04.650Z,3.04
2019-01-09T05:40:04.646Z,3.05
2019-01-09T05:41:04.659Z,3.10
2019-01-09T05:42:04.625Z,2.95
2019-01-09T05:43:04.610Z,2.98
2019-01-09T05:44:04.599Z,3.07
2019-01-09T05:45:04.592Z,2.95
2019-01-09T05:46:04.601Z,2.98
2019-01-09T05:47:04.568Z,2.98
2019-01-09T05:48:04.554Z,2.94
2019-01-09T05:49:04.546Z,3.04
2019-01-09T05:50:04.535Z,2.95
2019-01-09T05:51:04.542Z,2.90
2019-01-09T05:52:04.517Z,2.90
2019-01-09T05:53:04.504Z,2.90
2019-01-09T05:54:04.502Z,2.89
2019-01-09T05:55:04.540Z,2.87
2019-01-09T05:56:04.489Z,2.94
2019-01-09T05:57:04.463Z,2.90
2019-01-09T05:58:04.459Z,2.90
2019-01-09T05:59:04.455Z,2.80
2019-01-09T06:00:04.438Z,2.87
2019-01-09T06:01:04.461Z,2.86
2019-01-09T06:02:04.412Z,2.79
2019-01-09T06:03:04.414Z,2.84
2019-01-09T06:04:04.421Z,2.81
2019-01-09T06:05:04.379Z,2.79
2019-01-09T06:06:04.381Z,2.79
2019-01-09T06:07:04.369Z,2.81
2019-01-09T06:08:04.369Z,2.81
2019-01-09T06:09:04.331Z,2.80
2019-01-09T06:10:04.321Z,2.79
2019-01-09T06:11:04.329Z,2.79
2019-01-09T06:12:04.299Z,2.79
2019-01-09T06:13:04.291Z,2.79
2019-01-09T06:14:04.280Z,2.81
2019-01-09T06:15:04.268Z,2.71
2019-01-09T06:16:04.272Z,2.76
2019-01-09T06:17:04.244Z,2.68
2019-01-09T06:18:04.254Z,2.66
2019-01-09T06:19:04.226Z,2.73
2019-01-09T06:20:04.214Z,2.81
2019-01-09T06:21:04.217Z,2.62
2019-01-09T06:22:04.200Z,2.68
2019-01-09T06:23:04.181Z,2.61
2019-01-09T06:24:04.170Z,2.58
2019-01-09T06:25:04.179Z,2.58
2019-01-09T06:26:04.165Z,2.56
2019-01-09T06:27:04.140Z,2.48
2019-01-09T06:28:04.131Z,2.48
2019-01-09T06:29:04.125Z,2.36
2019-01-09T06:30:04.110Z,2.44
2019-01-09T06:31:04.136Z,2.50
2019-01-09T06:32:04.182Z,2.47
2019-01-09T06:33:04.092Z,2.43
2019-01-09T06:34:04.086Z,2.38
2019-01-09T06:35:04.081Z,2.40
2019-01-09T06:36:04.081Z,2.51
2019-01-09T06:37:04.034Z,2.44
2019-01-09T06:38:04.026Z,2.45
2019-01-09T06:39:04.017Z,2.38
2019-01-09T06:40:04.025Z,2.38
2019-01-09T06:41:04.291Z,2.40
2019-01-09T06:42:03.981Z,2.45
2019-01-09T06:43:03.971Z,2.41
2019-01-09T06:44:03.959Z,2.37
2019-01-09T06:45:03.947Z,2.29
2019-01-09T06:46:03.938Z,2.20
2019-01-09T06:47:03.962Z,2.22
2019-01-09T06:48:03.919Z,2.25
2019-01-09T06:49:03.913Z,2.33
2019-01-09T06:50:03.930Z,2.29
2019-01-09T06:51:03.900Z,2.23
2019-01-09T06:52:03.889Z,2.40
2019-01-09T06:53:03.877Z,2.25
2019-01-09T06:54:03.871Z,2.12
2019-01-09T06:55:03.886Z,2.26
2019-01-09T06:56:03.902Z,2.12
2019-01-09T06:57:03.847Z,2.08
2019-01-09T06:58:03.811Z,2.04
2019-01-09T06:59:03.812Z,2.07
2019-01-09T07:00:03.803Z,2.01
2019-01-09T07:01:03.837Z,1.89
2019-01-09T07:02:03.782Z,1.85
2019-01-09T07:03:03.777Z,1.89
2019-01-09T07:04:03.784Z,1.92
2019-01-09T07:05:03.742Z,1.88
2019-01-09T07:06:03.725Z,1.93
2019-01-09T07:07:03.766Z,1.86
2019-01-09T07:08:03.724Z,1.88
2019-01-09T07:09:03.694Z,1.93
2019-01-09T07:10:03.688Z,1.92
2019-01-09T07:11:03.698Z,2.02
2019-01-09T07:12:03.685Z,1.92
2019-01-09T07:13:03.651Z,2.00
2019-01-09T07:14:03.665Z,1.95
2019-01-09T07:15:11.438Z,2.04
2019-01-09T07:16:04.628Z,2.14
2019-01-09T07:17:03.632Z,2.22
2019-01-09T07:18:03.598Z,2.41
2019-01-09T07:19:03.587Z,2.56
2019-01-09T07:20:03.579Z,2.68
2019-01-09T07:21:03.564Z,2.71
2019-01-09T07:22:03.574Z,2.83
2019-01-09T07:23:03.543Z,2.87
2019-01-09T07:24:03.561Z,2.98
2019-01-09T07:25:03.523Z,2.95
2019-01-09T07:26:03.510Z,3.05
2019-01-09T07:27:03.523Z,3.05
2019-01-09T07:28:03.532Z,3.13
2019-01-09T07:29:03.498Z,3.08
2019-01-09T07:30:03.474Z,3.25
2019-01-09T07:31:03.458Z,3.26
2019-01-09T07:32:03.446Z,3.20
2019-01-09T07:33:03.450Z,3.17
2019-01-09T07:34:03.426Z,3.16
2019-01-09T07:35:03.423Z,3.16
2019-01-09T07:36:03.413Z,3.15
2019-01-09T07:37:03.393Z,3.08
2019-01-09T07:38:03.399Z,3.15
2019-01-09T07:39:03.372Z,3.10
2019-01-09T07:40:03.360Z,3.13
2019-01-09T07:41:03.361Z,3.02
2019-01-09T07:42:03.343Z,2.89
2019-01-09T07:43:03.346Z,2.98
2019-01-09T07:44:03.323Z,2.84
2019-01-09T07:45:03.328Z,2.65
2019-01-09T07:46:03.299Z,2.68
2019-01-09T07:47:03.288Z,2.61
2019-01-09T07:48:03.312Z,2.59
2019-01-09T07:49:03.353Z,2.51
2019-01-09T07:50:03.282Z,2.47
2019-01-09T07:51:03.247Z,2.43
2019-01-09T07:52:03.238Z,2.41
2019-01-09T07:53:03.247Z,2.40
2019-01-09T07:54:03.220Z,2.50
2019-01-09T07:55:03.206Z,2.43
2019-01-09T07:56:03.211Z,2.36
2019-01-09T07:57:03.181Z,2.37
2019-01-09T07:58:03.207Z,2.43
2019-01-09T07:59:03.164Z,2.45
2019-01-09T08:00:03.179Z,2.30
2019-01-09T08:01:03.161Z,2.43
2019-01-09T08:02:03.136Z,2.44
2019-01-09T08:03:03.135Z,2.47
2019-01-09T08:04:03.128Z,2.53
2019-01-09T08:05:03.114Z,2.50
2019-01-09T08:06:03.087Z,2.47
2019-01-09T08:07:03.076Z,2.51
2019-01-09T08:08:03.079Z,2.56
2019-01-09T08:09:03.091Z,2.59
2019-01-09T08:10:03.048Z,2.59
2019-01-09T08:11:03.049Z,2.56
2019-01-09T08:12:03.020Z,2.56
2019-01-09T08:13:03.024Z,2.53
2019-01-09T08:14:02.998Z,2.61
2019-01-09T08:15:02.999Z,2.65
2019-01-09T08:16:02.980Z,2.50
2019-01-09T08:17:02.969Z,2.48
2019-01-09T08:18:02.972Z,2.48
2019-01-09T08:19:02.948Z,2.47
2019-01-09T08:20:02.942Z,2.41
2019-01-09T08:21:05.548Z,2.47
2019-01-09T08:22:02.926Z,2.38
2019-01-09T08:23:02.963Z,2.30
2019-01-09T08:24:02.923Z,2.19
2019-01-09T08:25:02.883Z,2.23
2019-01-09T08:26:02.870Z,2.08
2019-01-09T08:27:02.860Z,2.04
2019-01-09T08:28:02.884Z,2.00
2019-01-09T08:29:02.853Z,1.95
2019-01-09T08:30:02.833Z,2.00
2019-01-09T08:31:02.884Z,2.02
2019-01-09T08:32:02.819Z,1.90
2019-01-09T08:33:02.812Z,1.90
2019-01-09T08:34:02.831Z,1.85
2019-01-09T08:35:02.779Z,1.95
2019-01-09T08:36:02.764Z,1.89
2019-01-09T08:37:02.819Z,1.89
2019-01-09T08:38:03.309Z,1.92
2019-01-09T08:39:02.735Z,1.82
2019-01-09T08:40:02.728Z,1.88
2019-01-09T08:41:02.722Z,1.85
2019-01-09T08:42:02.699Z,1.92
2019-01-09T08:43:02.708Z,1.92
2019-01-09T08:44:02.691Z,1.86
2019-01-09T08:45:02.687Z,1.88
2019-01-09T08:46:02.668Z,1.89
2019-01-09T08:47:02.651Z,1.86
2019-01-09T08:48:02.687Z,1.85
2019-01-09T08:49:02.634Z,1.89
2019-01-09T08:50:02.614Z,1.88
2019-01-09T08:51:02.605Z,1.90
2019-01-09T08:52:02.602Z,1.89
2019-01-09T08:53:02.615Z,1.92
2019-01-09T08:54:02.572Z,1.88
2019-01-09T08:55:02.578Z,1.93
2019-01-09T08:56:02.570Z,1.90
2019-01-09T08:57:02.539Z,1.90
2019-01-09T08:58:02.531Z,1.90
2019-01-09T08:59:02.539Z,1.93
2019-01-09T09:00:02.526Z,2.04
2019-01-09T09:01:02.501Z,2.00
2019-01-09T09:02:02.525Z,1.98
2019-01-09T09:03:02.524Z,2.00
2019-01-09T09:04:02.485Z,1.93
2019-01-09T09:05:02.457Z,1.98
2019-01-09T09:06:02.446Z,1.92
2019-01-09T09:07:02.457Z,1.86
2019-01-09T09:08:11.549Z,1.90
2019-01-09T09:09:03.453Z,1.93
2019-01-09T09:10:02.412Z,1.88
2019-01-09T09:11:02.397Z,1.92
2019-01-09T09:12:02.379Z,1.89
2019-01-09T09:13:02.370Z,2.00
2019-01-09T09:14:02.373Z,2.00
2019-01-09T09:15:02.372Z,1.90
2019-01-09T09:16:02.336Z,2.04
2019-01-09T09:17:02.327Z,2.07
2019-01-09T09:18:02.362Z,2.11
2019-01-09T09:19:02.323Z,2.11
2019-01-09T09:20:02.321Z,2.07
2019-01-09T09:21:02.294Z,2.12
2019-01-09T09:22:02.282Z,2.32
2019-01-09T09:23:02.272Z,2.26
2019-01-09T09:24:02.271Z,2.32
2019-01-09T09:25:02.239Z,2.30
2019-01-09T09:26:02.238Z,2.29
2019-01-09T09:27:02.217Z,2.33
2019-01-09T09:28:02.214Z,2.38
2019-01-09T09:29:02.226Z,2.40
2019-01-09T09:30:02.202Z,2.40
2019-01-09T09:31:02.207Z,2.45
2019-01-09T09:32:02.206Z,2.53
2019-01-09T09:33:02.168Z,2.58
2019-01-09T09:34:02.176Z,2.69
2019-01-09T09:35:02.134Z,2.68
2019-01-09T09:36:02.122Z,2.74
2019-01-09T09:37:02.116Z,2.86
2019-01-09T09:38:02.117Z,2.99
2019-01-09T09:39:02.106Z,3.13
2019-01-09T09:40:02.081Z,3.25
2019-01-09T09:41:02.094Z,3.33
2019-01-09T09:42:02.060Z,3.39
2019-01-09T09:43:02.047Z,3.54
2019-01-09T09:44:02.055Z,3.52
2019-01-09T09:45:02.050Z,3.63
2019-01-09T09:46:02.039Z,3.67
2019-01-09T09:47:02.007Z,3.60
2019-01-09T09:48:01.998Z,3.56
2019-01-09T09:49:02.037Z,3.53
2019-01-09T09:50:01.998Z,3.37
2019-01-09T09:51:02.087Z,3.26
2019-01-09T09:52:01.965Z,3.26
2019-01-09T09:53:01.959Z,3.31
2019-01-09T09:54:01.958Z,3.22
2019-01-09T09:55:01.933Z,3.34
2019-01-09T09:56:01.909Z,3.44
2019-01-09T09:57:01.899Z,3.44
2019-01-09T09:58:05.784Z,3.54
2019-01-09T09:59:01.896Z,3.57
2019-01-09T10:00:01.878Z,3.57
2019-01-09T10:01:01.866Z,3.70
2019-01-09T10:02:01.846Z,3.77
2019-01-09T10:03:01.846Z,3.75
2019-01-09T10:04:01.852Z,3.74
2019-01-09T10:05:01.841Z,3.77
2019-01-09T10:06:01.813Z,3.81
2019-01-09T10:07:01.803Z,3.88
2019-01-09T10:08:01.809Z,3.80
2019-01-09T10:09:01.808Z,3.77
2019-01-09T10:10:01.796Z,3.81
2019-01-09T10:11:01.756Z,3.80
2019-01-09T10:12:01.747Z,3.90
2019-01-09T10:13:01.731Z,3.95
2019-01-09T10:14:01.832Z,4.04
2019-01-09T10:15:01.706Z,4.13
2019-01-09T10:16:01.705Z,4.17
2019-01-09T10:17:01.719Z,4.32
2019-01-09T10:18:01.721Z,4.29
2019-01-09T10:19:01.711Z,4.35
2019-01-09T10:20:01.702Z,4.24
2019-01-09T10:21:01.654Z,4.32
2019-01-09T10:22:01.639Z,4.43
2019-01-09T10:23:01.634Z,4.54
2019-01-09T10:24:01.614Z,4.65
2019-01-09T10:25:01.615Z,4.61
2019-01-09T10:26:01.593Z,4.67
2019-01-09T10:27:01.583Z,4.65
2019-01-09T10:28:01.570Z,4.67
2019-01-09T10:29:01.562Z,4.53
2019-01-09T10:30:01.588Z,4.44
2019-01-09T10:31:01.561Z,4.44
2019-01-09T10:32:01.529Z,4.31
2019-01-09T10:33:01.521Z,4.34
2019-01-09T10:34:01.522Z,4.35
2019-01-09T10:35:01.518Z,4.44
2019-01-09T10:36:01.493Z,4.25
2019-01-09T10:37:01.474Z,4.34
2019-01-09T10:38:01.457Z,4.43
2019-01-09T10:39:01.476Z,4.38
2019-01-09T10:40:01.454Z,4.29
2019-01-09T10:41:01.430Z,4.18
2019-01-09T10:42:01.415Z,4.16
2019-01-09T10:43:01.420Z,4.13
2019-01-09T10:44:01.400Z,4.14
2019-01-09T10:45:01.422Z,4.18
2019-01-09T10:46:01.379Z,4.14
2019-01-09T10:47:01.374Z,4.13
2019-01-09T10:48:01.360Z,4.16
2019-01-09T10:49:01.339Z,4.14
2019-01-09T10:50:01.363Z,4.17
2019-01-09T10:51:01.340Z,4.16
2019-01-09T10:52:01.333Z,4.16
2019-01-09T10:53:01.297Z,4.16
2019-01-09T10:54:01.286Z,4.24
2019-01-09T10:55:01.292Z,4.21
2019-01-09T10:56:01.288Z,4.34
2019-01-09T10:57:01.256Z,4.35
2019-01-09T10:58:01.249Z,4.34
2019-01-09T10:59:01.235Z,4.38
2019-01-09T11:00:01.236Z,4.29
2019-01-09T11:01:01.257Z,4.34
2019-01-09T11:02:01.242Z,4.29
2019-01-09T11:03:01.210Z,4.38
2019-01-09T11:04:01.183Z,4.34
2019-01-09T11:05:01.183Z,4.43
2019-01-09T11:06:01.207Z,4.46
2019-01-09T11:07:01.146Z,4.31
2019-01-09T11:08:01.136Z,4.29
2019-01-09T11:09:01.171Z,4.25
2019-01-09T11:10:01.135Z,4.24
2019-01-09T11:11:01.104Z,4.18
2019-01-09T11:12:01.092Z,4.18
2019-01-09T11:13:01.080Z,4.06
2019-01-09T11:14:01.069Z,4.13
2019-01-09T11:15:01.077Z,4.04
2019-01-09T11:16:01.054Z,3.86
2019-01-09T11:17:01.040Z,3.86
2019-01-09T11:18:01.025Z,3.81
2019-01-09T11:19:01.033Z,3.80
2019-01-09T11:20:01.047Z,3.84
2019-01-09T11:21:01.018Z,3.84
2019-01-09T11:22:00.995Z,3.84
2019-01-09T11:23:01.023Z,3.89
2019-01-09T11:24:00.963Z,3.77
2019-01-09T11:25:01.754Z,3.77
2019-01-09T11:26:00.941Z,3.64
2019-01-09T11:27:00.931Z,3.63
2019-01-09T11:28:00.988Z,3.60
2019-01-09T11:29:00.909Z,3.64
2019-01-09T11:30:00.918Z,3.54
2019-01-09T11:31:00.890Z,3.56
2019-01-09T11:32:00.879Z,3.59
2019-01-09T11:33:00.911Z,3.53
2019-01-09T11:34:00.857Z,3.35
2019-01-09T11:35:00.874Z,3.44
2019-01-09T11:36:00.836Z,3.35
2019-01-09T11:37:00.825Z,3.33
2019-01-09T11:38:00.819Z,3.19
2019-01-09T11:39:00.806Z,3.08
2019-01-09T11:40:00.806Z,2.99
2019-01-09T11:41:00.827Z,2.89
2019-01-09T11:42:00.773Z,2.99
2019-01-09T11:43:00.780Z,2.90
2019-01-09T11:44:00.761Z,2.92
2019-01-09T11:45:00.771Z,2.86
2019-01-09T11:46:00.734Z,2.83
2019-01-09T11:47:00.722Z,2.74
2019-01-09T11:48:00.734Z,2.73
2019-01-09T11:49:00.698Z,2.66
2019-01-09T11:50:00.716Z,2.79
2019-01-09T11:51:00.682Z,2.73
2019-01-09T11:52:00.669Z,2.66
2019-01-09T11:53:00.662Z,2.71
2019-01-09T11:54:00.643Z,2.66
2019-01-09T11:55:00.653Z,2.58
2019-01-09T11:56:00.639Z,2.61
2019-01-09T11:57:00.614Z,2.74
2019-01-09T11:58:00.611Z,2.61
2019-01-09T11:59:00.653Z,2.68
2019-01-09T12:00:00.598Z,2.71
2019-01-09T12:01:00.576Z,2.65
2019-01-09T12:02:00.562Z,2.74
2019-01-09T12:03:00.556Z,2.76
2019-01-09T12:04:00.539Z,2.77
2019-01-09T12:05:00.526Z,2.69
2019-01-09T12:06:00.533Z,2.83
2019-01-09T12:07:00.516Z,2.90
2019-01-09T12:08:00.544Z,2.90
2019-01-09T12:09:04.620Z,2.97
2019-01-09T12:10:00.483Z,3.02
2019-01-09T12:11:00.507Z,3.12
2019-01-09T12:12:00.453Z,3.12
2019-01-09T12:13:00.449Z,3.16
2019-01-09T12:14:00.446Z,3.10
2019-01-09T12:15:00.422Z,3.15
2019-01-09T12:16:07.997Z,3.16
2019-01-09T12:17:01.430Z,3.37
2019-01-09T12:18:00.399Z,3.31
2019-01-09T12:19:00.378Z,3.49
2019-01-09T12:20:00.368Z,3.75
2019-01-09T12:21:00.375Z,3.86
2019-01-09T12:22:00.379Z,3.96
2019-01-09T12:23:00.336Z,4.04
2019-01-09T12:24:00.324Z,4.08
2019-01-09T12:25:00.343Z,3.96
2019-01-09T12:26:00.320Z,4.08
2019-01-09T12:27:00.293Z,4.10
2019-01-09T12:28:00.289Z,4.13
2019-01-09T12:29:00.270Z,4.07
2019-01-09T12:30:00.299Z,4.17
2019-01-09T12:31:00.264Z,4.07
2019-01-09T12:32:00.250Z,4.02
2019-01-09T12:33:00.239Z,3.96
2019-01-09T12:34:00.216Z,3.89
2019-01-09T12:35:00.268Z,3.81
2019-01-09T12:36:00.217Z,3.81
2019-01-09T12:37:00.188Z,3.80
2019-01-09T12:38:00.258Z,3.90
2019-01-09T12:39:00.166Z,3.84
2019-01-09T12:40:00.260Z,3.78
2019-01-09T12:41:00.195Z,3.77
2019-01-09T12:42:00.131Z,3.80
2019-01-09T12:43:00.127Z,3.74
2019-01-09T12:44:00.109Z,3.75
2019-01-09T12:45:00.195Z,3.70
2019-01-09T12:46:00.125Z,3.64
2019-01-09T12:47:00.076Z,3.64
2019-01-09T12:48:00.071Z,3.57
2019-01-09T12:49:00.055Z,3.56
2019-01-09T12:50:00.050Z,3.67
2019-01-09T12:51:00.058Z,3.63
2019-01-09T12:52:00.023Z,3.50
2019-01-09T12:53:00.026Z,3.50
2019-01-09T12:54:00.004Z,3.46
2019-01-09T12:54:59.992Z,3.49
2019-01-09T12:55:59.999Z,3.44
2019-01-09T12:56:59.969Z,3.34
2019-01-09T12:57:59.964Z,3.56
2019-01-09T12:58:59.952Z,3.54
2019-01-09T12:59:59.966Z,3.54
2019-01-09T13:00:59.968Z,3.54
2019-01-09T13:01:59.918Z,3.60
2019-01-09T13:02:59.916Z,3.60
2019-01-09T13:03:59.895Z,3.68
2019-01-09T13:04:59.886Z,3.72
2019-01-09T13:05:59.894Z,3.72
2019-01-09T13:06:59.868Z,3.75
2019-01-09T13:07:59.854Z,3.63
2019-01-09T13:08:59.845Z,3.52
2019-01-09T13:09:59.833Z,3.56
2019-01-09T13:10:59.843Z,3.54
2019-01-09T13:11:59.816Z,3.50
2019-01-09T13:12:59.821Z,3.57
2019-01-09T13:13:59.795Z,3.63
2019-01-09T13:14:59.783Z,3.64
2019-01-09T13:15:59.818Z,3.62
2019-01-09T13:16:59.763Z,3.63
2019-01-09T13:17:59.746Z,3.57